CheckWX is a tool to help pilots better visualize weather data.  It is not intended as a substitute for an official pre-flight weather briefing.

21:05:58 UTC

KAHQ METAR
Wahoo Municipal Airport
Wahoo, Nebraska, USA
Current

11 mins ago

KAHQ 232055Z AUTO M1/4SM +SN OVC003 M02/M02 A2963 RMK AO2 60006 T10221022
Observed
Feb-23 @ 20:55 UTC
Visibility
1/4 SM
Flight Rules
LIFR
Conditions
Heavy Snow
Cloud Levels
  • Overcast at 300' AGL
Temperature
-2°C / 28°F
Dewpoint
-2°C / 28°F
Humidity
100%
Altimeter
29.63" Hg
Pressure
1003.42 hPa
Previous

31 mins ago

KAHQ 232035Z AUTO 1/4SM SN OVC003 M02/M02 A2963 RMK AO2 T10201020
Observed
Feb-23 @ 20:35 UTC
Visibility
1/4 SM
Flight Rules
LIFR
Conditions
Snow
Cloud Levels
  • Overcast at 300' AGL
Temperature
-2°C / 28°F
Dewpoint
-2°C / 28°F
Humidity
100%
Altimeter
29.63" Hg
Pressure
1003.42 hPa
Previous

51 mins ago

KAHQ 232015Z AUTO 35021G29KT 1/4SM SN OVC003 M01/M01 A2963 RMK AO2 T10151015
Observed
Feb-23 @ 20:15 UTC
Wind
  • 350° at 21 KTS
  • Gusting to 29 KTS
Visibility
1/4 SM
Flight Rules
LIFR
Conditions
Snow
Cloud Levels
  • Overcast at 300' AGL
Temperature
-2°C / 28°F
Dewpoint
-2°C / 28°F
Humidity
100%
Altimeter
29.63" Hg
Pressure
1003.42 hPa